Airfield :
LOGIN :

Register | Disclaimer

   EN    FR    IT 

 










Legend :    VFR   Marginal VFR   IFR   Intensive IFR   Very Intensive IFR
Visi :
Ceiling :
>= 8 km
>= 3000ft
5 to 8 km
1000 to 3000 ft
1500m to 5 km
500 to 1000 ft
800 to 1500m
200 to 500 ft
< 800m
< 200 ft
Symbols :   Thunderstorms  Fog  Heavy snow  Heavy precipitations  Wind > 20 kt
SIGMETs :     Misc.  Thunderstorms  Icing  Turbulence  Mountain Waves  Volcanic Ashes







- Airport Elevation : 238 ft
- IATA code : FAB
- Download approach charts


EGLF - Farnborough

CURRENT METAR :
  • 231950Z 24014KT 9999 SCT012 SCT016 11/11 Q1015

EXPIRED METARs :
  • 231920Z 24014KT 9999 SCT012 SCT018 12/11 Q1014
  • 231850Z 24016KT 9999 FEW009 BKN015 12/12 Q1014
  • 231820Z 22015KT 9999 -DZ BKN009 11/11 Q1014
  • 231750Z 23017KT 9999 BKN010 12/12 Q1014
  • 231720Z 22015KT 9999 BKN010 12/12 Q1013

TAF TAF EGLF
Valid from the 23 at 18:00 until the 23 at 22:00 UTC


231701Z 2318/2322 21014KT 9999 SCT010
TEMPO 2318/2322 8000 -RA BKN010
PROB30
TEMPO 2318/2322 23017G27KT 3000 RA BKN007
ATIS : +44 09063 800 400 (*282)
No reported NOTAMs for that airfield.
1 SIGMET reported for the London FIR (EGTT) :
 
Severe mountain waves
EGTT SIGMET 02 VALID 231900/232300 EGRR
EGTT LONDON FIR SEV MTW FCST WI N5443 E00205 - N5356 W00137 - N5500 W00216 - N5500 W00100 - N5500 E00153 - N5443 E00205 SFC/FL150 STNR WKN=



MET'MAP, your aeronautical weather chart ! - Copyright ORBIFLY December 2007 - Disclaimer

ORBIFLY MET'MAP TEAM :

Programming & Development : Alexandra Zaïnal
Concept & Development : Baudouin d'Aumeries
Co-Development & Prog : Marc-Olivier Méhu
Technical & hardware support : Manuel Goepfert

Contact : metmap@orbifly.com




SOURCES & CREDITS :

   NOAA